Grey Shark — 3ELV4 — position and weather

sailwx.info

Track history (hours):
 
Tides and Currents Weather Stations Pressure Air Temp Water Temp Dewpoint Dewpoint Depression Visibility Wind Speed Wind Dir Waves Ship Positions

Grey Shark

Last reported at 2015-Jul-30 04:30 UTC. Time now 2015-Jul-30 06:09 UTC.
Position N 40°40' W 074°05'.

Length 110 m; draft 5.2 m.

Type: Cargo ship. MMSI: 371494000.

Date/timePositionNaut miles runAvg speedWind from/ knotsBaromVisibWave heightAir tempDewpointWater temp
2015-Jul-30 04:30N 40°40' W 074°05'0 0.0
2015-Jul-30 03:33N 40°40' W 074°05'0 0.0
2015-Jul-30 02:30N 40°40' W 074°05'0 0.0
2015-Jul-30 01:28N 40°40' W 074°05'0 0.0
2015-Jul-30 00:31N 40°40' W 074°05'0 0.0
2015-Jul-29 23:31N 40°40' W 074°05'0 0.0
2015-Jul-29 22:31N 40°40' W 074°05'0 0.0
2015-Jul-29 21:33N 40°40' W 074°05'0 0.0
2015-Jul-29 20:32N 40°40' W 074°05'0 0.0
2015-Jul-29 19:28N 40°40' W 074°05'0 0.0
2015-Jul-29 18:30N 40°40' W 074°05'0 0.0
2015-Jul-29 17:31N 40°40' W 074°05'0 0.0
2015-Jul-29 16:32N 40°40' W 074°05'0 0.0
2015-Jul-29 15:31N 40°40' W 074°05'0 0.0
2015-Jul-29 14:32N 40°40' W 074°05'0 0.0
2015-Jul-29 13:31N 40°40' W 074°05'0 0.0
2015-Jul-29 12:31N 40°40' W 074°05'0 0.0
2015-Jul-29 11:28N 40°40' W 074°05'0 0.0
2015-Jul-29 10:30N 40°40' W 074°05'0 0.0
2015-Jul-29 09:26N 40°40' W 074°05'1 0.8
2015-Jul-29 08:31N 40°40' W 074°04'0 0.0
2015-Jul-29 07:33N 40°40' W 074°04'0 0.0
2015-Jul-29 06:33N 40°40' W 074°04'0 0.0
2015-Jul-29 05:33N 40°40' W 074°04'0 0.0
2015-Jul-29 04:32N 40°40' W 074°04'1 0.7
2015-Jul-29 03:27N 40°40' W 074°05'0 0.0
2015-Jul-29 02:31N 40°40' W 074°05'0 0.0
2015-Jul-29 01:27N 40°40' W 074°05'0 0.0
2015-Jul-29 00:32N 40°40' W 074°05'0 0.0
2015-Jul-28 23:34N 40°40' W 074°05'0 0.0
2015-Jul-28 22:32N 40°40' W 074°05'0 0.0
2015-Jul-28 21:28N 40°40' W 074°05'0 0.0
2015-Jul-28 20:29N 40°40' W 074°05'0 0.0
2015-Jul-28 19:33N 40°40' W 074°05'0 0.0
2015-Jul-28 18:32N 40°40' W 074°05'0 0.0
2015-Jul-28 17:31N 40°40' W 074°05'0 0.0
2015-Jul-28 16:31N 40°40' W 074°05'0 0.0
2015-Jul-28 15:33N 40°40' W 074°05'0 0.0
2015-Jul-28 14:32N 40°40' W 074°05'0 0.0
2015-Jul-28 13:34N 40°40' W 074°05'0 0.0
2015-Jul-28 12:32N 40°40' W 074°05'0 0.0
2015-Jul-28 11:28N 40°40' W 074°05'0 0.0
2015-Jul-28 10:34N 40°40' W 074°05'0 0.0
2015-Jul-28 09:33N 40°40' W 074°05'0 0.0
2015-Jul-28 08:33N 40°40' W 074°05'0 0.0
2015-Jul-28 07:34N 40°40' W 074°05'0 0.0
2015-Jul-28 06:32N 40°40' W 074°05'0 0.0
2015-Jul-28 05:34N 40°40' W 074°05'0 0.0
2015-Jul-28 04:32N 40°40' W 074°05'0 0.0
2015-Jul-28 03:28N 40°40' W 074°05'0 0.0
2015-Jul-28 02:30N 40°40' W 074°05'0 0.0
2015-Jul-28 01:33N 40°40' W 074°05'0 0.0
2015-Jul-28 00:30N 40°40' W 074°05'0 0.1
2015-Jul-27 23:34N 40°40' W 074°05'6 5.9
2015-Jul-27 22:33N 40°35' W 074°02'7 6.8
2015-Jul-27 21:32N 40°30' W 073°56'8 8.1
2015-Jul-27 20:33N 40°28' W 073°46'6 5.6
2015-Jul-27 19:34N 40°30' W 073°39'1 0.4
2015-Jul-27 17:04N 40°31' W 073°39'0 0.0
2015-Jul-27 16:29N 40°31' W 073°38'0 0.0
2015-Jul-27 15:23N 40°31' W 073°38'0 0.0
2015-Jul-27 13:09N 40°31' W 073°38'0 0.0
2015-Jul-27 12:29N 40°31' W 073°38'0 0.0
2015-Jul-27 07:18N 40°31' W 073°38'0 0.0
2015-Jul-27 06:29N 40°31' W 073°38'0 0.0
2015-Jul-27 05:28N 40°31' W 073°38'0 0.0
2015-Jul-27 04:29N 40°31' W 073°38'0 0.0
2015-Jul-27 03:34N 40°31' W 073°38'0 0.0
2015-Jul-27 02:29N 40°31' W 073°38'0 0.0
2015-Jul-27 01:30N 40°31' W 073°38'0 0.0
2015-Jul-27 00:33N 40°31' W 073°38'0 0.0
2015-Jul-26 23:27N 40°31' W 073°39'0 0.0
2015-Jul-26 22:33N 40°31' W 073°39'0 0.0
2015-Jul-26 21:33N 40°31' W 073°39'2 1.6
2015-Jul-26 20:33N 40°30' W 073°40'8 8.4
2015-Jul-26 19:33N 40°22' W 073°45'1110.9
2015-Jul-26 18:33N 40°11' W 073°44'1110.8
2015-Jul-26 17:33N 40°01' W 073°43'5610.3
2015-Jul-26 12:10N 39°05' W 073°47'3010.4
2015-Jul-26 09:14N 38°35' W 073°52'  
2015-Jul-23 09:25N 27°10' W 079°47'1213.6
2015-Jul-23 08:33N 26°59' W 079°48'1713.4
2015-Jul-23 07:18N 26°42' W 079°49'1013.2
2015-Jul-23 06:33N 26°32' W 079°49'1313.3
2015-Jul-23 05:33N 26°19' W 079°52'1312.8
2015-Jul-23 04:33N 26°07' W 079°56'1212.5
2015-Jul-23 03:33N 25°54' W 079°55'1313.1
2015-Jul-23 02:33N 25°41' W 079°55'1313.0
2015-Jul-23 01:33N 25°28' W 079°54'1312.8
2015-Jul-23 00:33N 25°15' W 079°54'  
Track history (hours):
 
Tides and Currents Weather Stations Pressure Air Temp Water Temp Dewpoint Dewpoint Depression Visibility Wind Speed Wind Dir Waves Ship Positions

Grey Shark

Last reported at 2015-Jul-30 04:30 UTC. Time now 2015-Jul-30 06:09 UTC.
Position N 40°40' W 074°05'.

Length 110 m; draft 5.2 m.

Type: Cargo ship. MMSI: 371494000.

Date/timePositionNaut miles runAvg speedWind from/ knotsBaromVisibWave heightAir tempDewpointWater temp
2015-Jul-30 04:30N 40°40' W 074°05'0 0.0
2015-Jul-30 03:33N 40°40' W 074°05'0 0.0
2015-Jul-30 02:30N 40°40' W 074°05'0 0.0
2015-Jul-30 01:28N 40°40' W 074°05'0 0.0
2015-Jul-30 00:31N 40°40' W 074°05'0 0.0
2015-Jul-29 23:31N 40°40' W 074°05'0 0.0
2015-Jul-29 22:31N 40°40' W 074°05'0 0.0
2015-Jul-29 21:33N 40°40' W 074°05'0 0.0
2015-Jul-29 20:32N 40°40' W 074°05'0 0.0
2015-Jul-29 19:28N 40°40' W 074°05'0 0.0
2015-Jul-29 18:30N 40°40' W 074°05'0 0.0
2015-Jul-29 17:31N 40°40' W 074°05'0 0.0
2015-Jul-29 16:32N 40°40' W 074°05'0 0.0
2015-Jul-29 15:31N 40°40' W 074°05'0 0.0
2015-Jul-29 14:32N 40°40' W 074°05'0 0.0
2015-Jul-29 13:31N 40°40' W 074°05'0 0.0
2015-Jul-29 12:31N 40°40' W 074°05'0 0.0
2015-Jul-29 11:28N 40°40' W 074°05'0 0.0
2015-Jul-29 10:30N 40°40' W 074°05'0 0.0
2015-Jul-29 09:26N 40°40' W 074°05'1 0.8
2015-Jul-29 08:31N 40°40' W 074°04'0 0.0
2015-Jul-29 07:33N 40°40' W 074°04'0 0.0
2015-Jul-29 06:33N 40°40' W 074°04'0 0.0
2015-Jul-29 05:33N 40°40' W 074°04'0 0.0
2015-Jul-29 04:32N 40°40' W 074°04'1 0.7
2015-Jul-29 03:27N 40°40' W 074°05'0 0.0
2015-Jul-29 02:31N 40°40' W 074°05'0 0.0
2015-Jul-29 01:27N 40°40' W 074°05'0 0.0
2015-Jul-29 00:32N 40°40' W 074°05'0 0.0
2015-Jul-28 23:34N 40°40' W 074°05'0 0.0
2015-Jul-28 22:32N 40°40' W 074°05'0 0.0
2015-Jul-28 21:28N 40°40' W 074°05'0 0.0
2015-Jul-28 20:29N 40°40' W 074°05'0 0.0
2015-Jul-28 19:33N 40°40' W 074°05'0 0.0
2015-Jul-28 18:32N 40°40' W 074°05'0 0.0
2015-Jul-28 17:31N 40°40' W 074°05'0 0.0
2015-Jul-28 16:31N 40°40' W 074°05'0 0.0
2015-Jul-28 15:33N 40°40' W 074°05'0 0.0
2015-Jul-28 14:32N 40°40' W 074°05'0 0.0
2015-Jul-28 13:34N 40°40' W 074°05'0 0.0
2015-Jul-28 12:32N 40°40' W 074°05'0 0.0
2015-Jul-28 11:28N 40°40' W 074°05'0 0.0
2015-Jul-28 10:34N 40°40' W 074°05'0 0.0
2015-Jul-28 09:33N 40°40' W 074°05'0 0.0
2015-Jul-28 08:33N 40°40' W 074°05'0 0.0
2015-Jul-28 07:34N 40°40' W 074°05'0 0.0
2015-Jul-28 06:32N 40°40' W 074°05'0 0.0
2015-Jul-28 05:34N 40°40' W 074°05'0 0.0
2015-Jul-28 04:32N 40°40' W 074°05'0 0.0
2015-Jul-28 03:28N 40°40' W 074°05'0 0.0
2015-Jul-28 02:30N 40°40' W 074°05'0 0.0
2015-Jul-28 01:33N 40°40' W 074°05'0 0.0
2015-Jul-28 00:30N 40°40' W 074°05'0 0.1
2015-Jul-27 23:34N 40°40' W 074°05'6 5.9
2015-Jul-27 22:33N 40°35' W 074°02'7 6.8
2015-Jul-27 21:32N 40°30' W 073°56'8 8.1
2015-Jul-27 20:33N 40°28' W 073°46'6 5.6
2015-Jul-27 19:34N 40°30' W 073°39'1 0.4
2015-Jul-27 17:04N 40°31' W 073°39'0 0.0
2015-Jul-27 16:29N 40°31' W 073°38'0 0.0
2015-Jul-27 15:23N 40°31' W 073°38'0 0.0
2015-Jul-27 13:09N 40°31' W 073°38'0 0.0
2015-Jul-27 12:29N 40°31' W 073°38'0 0.0
2015-Jul-27 07:18N 40°31' W 073°38'0 0.0
2015-Jul-27 06:29N 40°31' W 073°38'0 0.0
2015-Jul-27 05:28N 40°31' W 073°38'0 0.0
2015-Jul-27 04:29N 40°31' W 073°38'0 0.0
2015-Jul-27 03:34N 40°31' W 073°38'0 0.0
2015-Jul-27 02:29N 40°31' W 073°38'0 0.0
2015-Jul-27 01:30N 40°31' W 073°38'0 0.0
2015-Jul-27 00:33N 40°31' W 073°38'0 0.0
2015-Jul-26 23:27N 40°31' W 073°39'0 0.0
2015-Jul-26 22:33N 40°31' W 073°39'0 0.0
2015-Jul-26 21:33N 40°31' W 073°39'2 1.6
2015-Jul-26 20:33N 40°30' W 073°40'8 8.4
2015-Jul-26 19:33N 40°22' W 073°45'1110.9
2015-Jul-26 18:33N 40°11' W 073°44'1110.8
2015-Jul-26 17:33N 40°01' W 073°43'5610.3
2015-Jul-26 12:10N 39°05' W 073°47'3010.4
2015-Jul-26 09:14N 38°35' W 073°52'  
2015-Jul-23 09:25N 27°10' W 079°47'1213.6
2015-Jul-23 08:33N 26°59' W 079°48'1713.4
2015-Jul-23 07:18N 26°42' W 079°49'1013.2
2015-Jul-23 06:33N 26°32' W 079°49'1313.3
2015-Jul-23 05:33N 26°19' W 079°52'1312.8
2015-Jul-23 04:33N 26°07' W 079°56'1212.5
2015-Jul-23 03:33N 25°54' W 079°55'1313.1
2015-Jul-23 02:33N 25°41' W 079°55'1313.0
2015-Jul-23 01:33N 25°28' W 079°54'1312.8
2015-Jul-23 00:33N 25°15' W 079°54'  

Dump ship's entire track history